sensor_id;sensor_type;location;lat;lon;timestamp;P1;durP1;ratioP1;P2;durP2;ratioP2
2546;SDS011;1283;47.982;7.834;2023-06-05T00:02:09;8.52;;;3.70;;
2546;SDS011;1283;47.982;7.834;2023-06-05T00:04:35;5.82;;;3.65;;
2546;SDS011;1283;47.982;7.834;2023-06-05T00:07:02;7.85;;;3.53;;
2546;SDS011;1283;47.982;7.834;2023-06-05T00:09:29;12.88;;;4.00;;
2546;SDS011;1283;47.982;7.834;2023-06-05T00:11:56;9.75;;;4.57;;
2546;SDS011;1283;47.982;7.834;2023-06-05T00:14:22;7.53;;;4.28;;
2546;SDS011;1283;47.982;7.834;2023-06-05T00:16:49;8.38;;;4.13;;
2546;SDS011;1283;47.982;7.834;2023-06-05T00:19:16;13.52;;;3.90;;
2546;SDS011;1283;47.982;7.834;2023-06-05T00:21:43;8.95;;;4.00;;
2546;SDS011;1283;47.982;7.834;2023-06-05T00:24:09;8.18;;;4.38;;
2546;SDS011;1283;47.982;7.834;2023-06-05T00:26:37;6.80;;;4.03;;
2546;SDS011;1283;47.982;7.834;2023-06-05T00:29:03;7.50;;;4.05;;
2546;SDS011;1283;47.982;7.834;2023-06-05T00:31:30;9.95;;;3.70;;
2546;SDS011;1283;47.982;7.834;2023-06-05T00:33:57;6.43;;;3.60;;
2546;SDS011;1283;47.982;7.834;2023-06-05T00:36:24;7.25;;;4.47;;
2546;SDS011;1283;47.982;7.834;2023-06-05T00:38:50;6.70;;;4.05;;
2546;SDS011;1283;47.982;7.834;2023-06-05T00:41:17;8.30;;;4.30;;
2546;SDS011;1283;47.982;7.834;2023-06-05T00:43:45;8.75;;;4.15;;
2546;SDS011;1283;47.982;7.834;2023-06-05T00:46:11;9.10;;;4.22;;
2546;SDS011;1283;47.982;7.834;2023-06-05T00:48:38;8.55;;;4.30;;
2546;SDS011;1283;47.982;7.834;2023-06-05T00:51:07;10.50;;;3.83;;
2546;SDS011;1283;47.982;7.834;2023-06-05T00:53:35;6.40;;;3.65;;
2546;SDS011;1283;47.982;7.834;2023-06-05T00:56:02;8.15;;;4.28;;
2546;SDS011;1283;47.982;7.834;2023-06-05T00:58:29;6.88;;;4.18;;
2546;SDS011;1283;47.982;7.834;2023-06-05T01:00:58;7.88;;;4.47;;
2546;SDS011;1283;47.982;7.834;2023-06-05T01:03:28;12.35;;;4.10;;
2546;SDS011;1283;47.982;7.834;2023-06-05T01:05:58;8.57;;;4.60;;
2546;SDS011;1283;47.982;7.834;2023-06-05T01:08:28;6.95;;;3.92;;
2546;SDS011;1283;47.982;7.834;2023-06-05T01:11:01;6.53;;;3.67;;
2546;SDS011;1283;47.982;7.834;2023-06-05T01:13:28;7.97;;;4.15;;
2546;SDS011;1283;47.982;7.834;2023-06-05T01:15:59;15.63;;;4.10;;
2546;SDS011;1283;47.982;7.834;2023-06-05T01:18:30;7.72;;;4.25;;
2546;SDS011;1283;47.982;7.834;2023-06-05T01:20:59;6.90;;;4.35;;
2546;SDS011;1283;47.982;7.834;2023-06-05T01:23:27;10.05;;;4.70;;
2546;SDS011;1283;47.982;7.834;2023-06-05T01:25:54;7.10;;;4.38;;
2546;SDS011;1283;47.982;7.834;2023-06-05T01:28:22;9.52;;;4.53;;
2546;SDS011;1283;47.982;7.834;2023-06-05T01:30:52;9.68;;;4.32;;
2546;SDS011;1283;47.982;7.834;2023-06-05T01:33:28;11.05;;;4.65;;
2546;SDS011;1283;47.982;7.834;2023-06-05T01:35:56;7.50;;;4.57;;
2546;SDS011;1283;47.982;7.834;2023-06-05T01:38:31;6.22;;;4.28;;
2546;SDS011;1283;47.982;7.834;2023-06-05T01:40:59;8.82;;;4.85;;
2546;SDS011;1283;47.982;7.834;2023-06-05T01:43:26;7.13;;;3.92;;
2546;SDS011;1283;47.982;7.834;2023-06-05T01:45:52;8.07;;;4.47;;
2546;SDS011;1283;47.982;7.834;2023-06-05T01:48:21;9.40;;;4.85;;
2546;SDS011;1283;47.982;7.834;2023-06-05T01:50:48;6.45;;;4.32;;
2546;SDS011;1283;47.982;7.834;2023-06-05T01:53:18;9.70;;;4.30;;
2546;SDS011;1283;47.982;7.834;2023-06-05T01:55:46;9.25;;;4.22;;
2546;SDS011;1283;47.982;7.834;2023-06-05T01:58:13;7.65;;;4.55;;
2546;SDS011;1283;47.982;7.834;2023-06-05T02:00:40;9.02;;;4.65;;
2546;SDS011;1283;47.982;7.834;2023-06-05T02:03:07;10.43;;;5.18;;
2546;SDS011;1283;47.982;7.834;2023-06-05T02:05:34;10.25;;;4.75;;
2546;SDS011;1283;47.982;7.834;2023-06-05T02:08:01;9.40;;;4.82;;
2546;SDS011;1283;47.982;7.834;2023-06-05T02:10:30;7.78;;;4.28;;
2546;SDS011;1283;47.982;7.834;2023-06-05T02:12:58;8.57;;;4.75;;
2546;SDS011;1283;47.982;7.834;2023-06-05T02:15:24;6.85;;;4.53;;
2546;SDS011;1283;47.982;7.834;2023-06-05T02:17:50;8.90;;;4.50;;
2546;SDS011;1283;47.982;7.834;2023-06-05T02:20:18;7.50;;;4.63;;
2546;SDS011;1283;47.982;7.834;2023-06-05T02:22:45;7.38;;;4.60;;
2546;SDS011;1283;47.982;7.834;2023-06-05T02:25:15;7.10;;;4.63;;
2546;SDS011;1283;47.982;7.834;2023-06-05T02:27:41;9.18;;;5.05;;
2546;SDS011;1283;47.982;7.834;2023-06-05T02:30:10;7.80;;;4.63;;
2546;SDS011;1283;47.982;7.834;2023-06-05T02:32:37;10.20;;;4.82;;
2546;SDS011;1283;47.982;7.834;2023-06-05T02:35:06;10.23;;;4.97;;
2546;SDS011;1283;47.982;7.834;2023-06-05T02:37:33;7.40;;;4.78;;
2546;SDS011;1283;47.982;7.834;2023-06-05T02:40:02;6.72;;;4.00;;
2546;SDS011;1283;47.982;7.834;2023-06-05T02:42:30;8.15;;;4.60;;
2546;SDS011;1283;47.982;7.834;2023-06-05T02:44:56;18.88;;;4.82;;
2546;SDS011;1283;47.982;7.834;2023-06-05T02:47:24;8.98;;;4.82;;
2546;SDS011;1283;47.982;7.834;2023-06-05T02:49:50;8.98;;;4.63;;
2546;SDS011;1283;47.982;7.834;2023-06-05T02:52:17;8.05;;;4.85;;
2546;SDS011;1283;47.982;7.834;2023-06-05T02:54:43;11.23;;;4.38;;
2546;SDS011;1283;47.982;7.834;2023-06-05T02:57:10;7.93;;;4.70;;
2546;SDS011;1283;47.982;7.834;2023-06-05T02:59:36;9.60;;;4.50;;
2546;SDS011;1283;47.982;7.834;2023-06-05T03:02:04;10.15;;;4.47;;
2546;SDS011;1283;47.982;7.834;2023-06-05T03:04:32;8.02;;;5.43;;
2546;SDS011;1283;47.982;7.834;2023-06-05T03:06:58;11.18;;;4.75;;
2546;SDS011;1283;47.982;7.834;2023-06-05T03:09:29;10.15;;;4.47;;
2546;SDS011;1283;47.982;7.834;2023-06-05T03:11:55;10.25;;;4.80;;
2546;SDS011;1283;47.982;7.834;2023-06-05T03:14:22;14.02;;;5.53;;
2546;SDS011;1283;47.982;7.834;2023-06-05T03:16:48;12.05;;;6.43;;
2546;SDS011;1283;47.982;7.834;2023-06-05T03:19:15;7.57;;;4.72;;
2546;SDS011;1283;47.982;7.834;2023-06-05T03:21:43;12.98;;;5.50;;
2546;SDS011;1283;47.982;7.834;2023-06-05T03:24:11;8.52;;;5.07;;
2546;SDS011;1283;47.982;7.834;2023-06-05T03:26:39;8.77;;;5.13;;
2546;SDS011;1283;47.982;7.834;2023-06-05T03:29:06;8.30;;;4.90;;
2546;SDS011;1283;47.982;7.834;2023-06-05T03:31:33;8.05;;;5.03;;
2546;SDS011;1283;47.982;7.834;2023-06-05T03:34:00;9.35;;;4.78;;
2546;SDS011;1283;47.982;7.834;2023-06-05T03:36:27;12.50;;;5.05;;
2546;SDS011;1283;47.982;7.834;2023-06-05T03:38:55;9.80;;;4.97;;
2546;SDS011;1283;47.982;7.834;2023-06-05T03:41:22;10.32;;;4.70;;
2546;SDS011;1283;47.982;7.834;2023-06-05T03:43:49;9.32;;;5.05;;
2546;SDS011;1283;47.982;7.834;2023-06-05T03:46:15;10.50;;;5.05;;
2546;SDS011;1283;47.982;7.834;2023-06-05T03:48:44;8.57;;;4.65;;
2546;SDS011;1283;47.982;7.834;2023-06-05T03:51:10;8.48;;;4.97;;
2546;SDS011;1283;47.982;7.834;2023-06-05T03:53:37;9.55;;;4.88;;
2546;SDS011;1283;47.982;7.834;2023-06-05T03:56:06;11.02;;;5.07;;
2546;SDS011;1283;47.982;7.834;2023-06-05T03:58:33;11.57;;;5.78;;
2546;SDS011;1283;47.982;7.834;2023-06-05T04:01:00;11.43;;;4.88;;
2546;SDS011;1283;47.982;7.834;2023-06-05T04:03:26;8.38;;;4.80;;
2546;SDS011;1283;47.982;7.834;2023-06-05T04:05:53;8.50;;;4.72;;
2546;SDS011;1283;47.982;7.834;2023-06-05T04:08:20;7.15;;;4.90;;
2546;SDS011;1283;47.982;7.834;2023-06-05T04:10:46;9.20;;;4.50;;
2546;SDS011;1283;47.982;7.834;2023-06-05T04:13:14;9.75;;;5.00;;
2546;SDS011;1283;47.982;7.834;2023-06-05T04:15:41;8.90;;;4.55;;
2546;SDS011;1283;47.982;7.834;2023-06-05T04:18:09;12.75;;;4.72;;
2546;SDS011;1283;47.982;7.834;2023-06-05T04:20:35;10.68;;;4.40;;
2546;SDS011;1283;47.982;7.834;2023-06-05T04:23:02;11.63;;;4.40;;
2546;SDS011;1283;47.982;7.834;2023-06-05T04:25:28;5.72;;;3.85;;
2546;SDS011;1283;47.982;7.834;2023-06-05T04:27:55;8.55;;;4.80;;
2546;SDS011;1283;47.982;7.834;2023-06-05T04:30:23;8.48;;;4.65;;
2546;SDS011;1283;47.982;7.834;2023-06-05T04:32:50;19.98;;;4.55;;
2546;SDS011;1283;47.982;7.834;2023-06-05T04:35:19;7.43;;;4.38;;
2546;SDS011;1283;47.982;7.834;2023-06-05T04:37:46;9.13;;;4.53;;
2546;SDS011;1283;47.982;7.834;2023-06-05T04:40:15;6.43;;;4.07;;
2546;SDS011;1283;47.982;7.834;2023-06-05T04:42:42;8.95;;;4.22;;
2546;SDS011;1283;47.982;7.834;2023-06-05T04:45:08;11.93;;;4.20;;
2546;SDS011;1283;47.982;7.834;2023-06-05T04:47:36;6.20;;;3.70;;
2546;SDS011;1283;47.982;7.834;2023-06-05T04:50:03;7.00;;;4.20;;
2546;SDS011;1283;47.982;7.834;2023-06-05T04:52:31;11.45;;;4.35;;
2546;SDS011;1283;47.982;7.834;2023-06-05T04:54:58;11.07;;;4.40;;
2546;SDS011;1283;47.982;7.834;2023-06-05T04:57:26;7.32;;;4.55;;
2546;SDS011;1283;47.982;7.834;2023-06-05T04:59:53;6.30;;;4.07;;
2546;SDS011;1283;47.982;7.834;2023-06-05T05:02:19;11.93;;;4.90;;
2546;SDS011;1283;47.982;7.834;2023-06-05T05:04:47;6.80;;;4.15;;
2546;SDS011;1283;47.982;7.834;2023-06-05T05:07:14;7.50;;;4.30;;
2546;SDS011;1283;47.982;7.834;2023-06-05T05:09:41;7.50;;;4.35;;
2546;SDS011;1283;47.982;7.834;2023-06-05T05:12:08;7.35;;;4.22;;
2546;SDS011;1283;47.982;7.834;2023-06-05T05:14:34;14.43;;;4.45;;
2546;SDS011;1283;47.982;7.834;2023-06-05T05:17:01;8.77;;;4.05;;
2546;SDS011;1283;47.982;7.834;2023-06-05T05:19:28;9.68;;;4.70;;
2546;SDS011;1283;47.982;7.834;2023-06-05T05:21:56;17.05;;;5.80;;
2546;SDS011;1283;47.982;7.834;2023-06-05T05:24:23;9.98;;;4.35;;
2546;SDS011;1283;47.982;7.834;2023-06-05T05:26:50;9.40;;;4.03;;
2546;SDS011;1283;47.982;7.834;2023-06-05T05:29:17;9.80;;;4.40;;
2546;SDS011;1283;47.982;7.834;2023-06-05T05:31:44;13.60;;;4.57;;
2546;SDS011;1283;47.982;7.834;2023-06-05T05:34:10;10.35;;;3.92;;
2546;SDS011;1283;47.982;7.834;2023-06-05T05:36:37;9.43;;;4.00;;
2546;SDS011;1283;47.982;7.834;2023-06-05T05:39:04;9.25;;;4.25;;
2546;SDS011;1283;47.982;7.834;2023-06-05T05:41:32;8.88;;;4.47;;
2546;SDS011;1283;47.982;7.834;2023-06-05T05:43:59;6.28;;;3.88;;
2546;SDS011;1283;47.982;7.834;2023-06-05T05:46:25;8.13;;;4.13;;
2546;SDS011;1283;47.982;7.834;2023-06-05T05:48:52;9.00;;;4.10;;
2546;SDS011;1283;47.982;7.834;2023-06-05T05:51:20;9.10;;;4.05;;
2546;SDS011;1283;47.982;7.834;2023-06-05T05:53:46;8.73;;;4.22;;
2546;SDS011;1283;47.982;7.834;2023-06-05T05:56:14;13.48;;;3.80;;
2546;SDS011;1283;47.982;7.834;2023-06-05T05:58:40;6.82;;;3.80;;
2546;SDS011;1283;47.982;7.834;2023-06-05T06:01:07;11.40;;;4.13;;
2546;SDS011;1283;47.982;7.834;2023-06-05T06:03:34;10.40;;;3.97;;
2546;SDS011;1283;47.982;7.834;2023-06-05T06:06:02;8.70;;;3.90;;
2546;SDS011;1283;47.982;7.834;2023-06-05T06:08:31;10.45;;;4.47;;
2546;SDS011;1283;47.982;7.834;2023-06-05T06:10:58;9.52;;;4.40;;
2546;SDS011;1283;47.982;7.834;2023-06-05T06:13:26;7.95;;;4.38;;
2546;SDS011;1283;47.982;7.834;2023-06-05T06:15:52;7.05;;;4.10;;
2546;SDS011;1283;47.982;7.834;2023-06-05T06:18:19;6.82;;;4.03;;
2546;SDS011;1283;47.982;7.834;2023-06-05T06:20:45;9.43;;;4.28;;
2546;SDS011;1283;47.982;7.834;2023-06-05T06:23:12;14.25;;;4.20;;
2546;SDS011;1283;47.982;7.834;2023-06-05T06:25:38;13.20;;;4.30;;
2546;SDS011;1283;47.982;7.834;2023-06-05T06:28:05;7.53;;;4.07;;
2546;SDS011;1283;47.982;7.834;2023-06-05T06:30:33;11.60;;;4.22;;
2546;SDS011;1283;47.982;7.834;2023-06-05T06:33:00;6.32;;;4.10;;
2546;SDS011;1283;47.982;7.834;2023-06-05T06:35:29;7.05;;;4.47;;
2546;SDS011;1283;47.982;7.834;2023-06-05T06:37:56;9.98;;;4.20;;
2546;SDS011;1283;47.982;7.834;2023-06-05T06:40:23;7.93;;;3.83;;
2546;SDS011;1283;47.982;7.834;2023-06-05T06:42:50;6.43;;;3.83;;
2546;SDS011;1283;47.982;7.834;2023-06-05T06:45:17;7.28;;;3.92;;
2546;SDS011;1283;47.982;7.834;2023-06-05T06:47:44;10.88;;;3.67;;
2546;SDS011;1283;47.982;7.834;2023-06-05T06:50:12;6.55;;;3.90;;
2546;SDS011;1283;47.982;7.834;2023-06-05T06:52:38;12.07;;;3.97;;
2546;SDS011;1283;47.982;7.834;2023-06-05T06:55:05;10.85;;;4.10;;
2546;SDS011;1283;47.982;7.834;2023-06-05T06:57:32;12.32;;;3.80;;
2546;SDS011;1283;47.982;7.834;2023-06-05T06:59:59;9.93;;;3.90;;
2546;SDS011;1283;47.982;7.834;2023-06-05T07:02:25;8.75;;;3.83;;
2546;SDS011;1283;47.982;7.834;2023-06-05T07:04:53;5.70;;;3.30;;
2546;SDS011;1283;47.982;7.834;2023-06-05T07:07:19;7.03;;;3.50;;
2546;SDS011;1283;47.982;7.834;2023-06-05T07:09:48;12.32;;;3.65;;
2546;SDS011;1283;47.982;7.834;2023-06-05T07:12:17;10.15;;;3.72;;
2546;SDS011;1283;47.982;7.834;2023-06-05T07:14:45;12.95;;;3.78;;
2546;SDS011;1283;47.982;7.834;2023-06-05T07:17:12;9.05;;;3.75;;
2546;SDS011;1283;47.982;7.834;2023-06-05T07:19:38;10.38;;;3.97;;
2546;SDS011;1283;47.982;7.834;2023-06-05T07:22:06;10.13;;;3.75;;
2546;SDS011;1283;47.982;7.834;2023-06-05T07:24:33;17.40;;;3.95;;
2546;SDS011;1283;47.982;7.834;2023-06-05T07:27:02;16.00;;;4.00;;
2546;SDS011;1283;47.982;7.834;2023-06-05T07:29:29;6.45;;;3.70;;
2546;SDS011;1283;47.982;7.834;2023-06-05T07:31:57;12.65;;;3.63;;
2546;SDS011;1283;47.982;7.834;2023-06-05T07:34:24;9.88;;;3.70;;
2546;SDS011;1283;47.982;7.834;2023-06-05T07:36:51;10.20;;;3.55;;
2546;SDS011;1283;47.982;7.834;2023-06-05T07:39:20;11.02;;;3.25;;
2546;SDS011;1283;47.982;7.834;2023-06-05T07:41:47;10.63;;;3.60;;
2546;SDS011;1283;47.982;7.834;2023-06-05T07:44:14;7.05;;;3.63;;
2546;SDS011;1283;47.982;7.834;2023-06-05T07:46:41;12.55;;;3.70;;
2546;SDS011;1283;47.982;7.834;2023-06-05T07:49:08;8.80;;;3.08;;
2546;SDS011;1283;47.982;7.834;2023-06-05T07:51:35;14.15;;;3.38;;
2546;SDS011;1283;47.982;7.834;2023-06-05T07:54:02;11.65;;;3.58;;
2546;SDS011;1283;47.982;7.834;2023-06-05T07:56:30;9.63;;;3.88;;
2546;SDS011;1283;47.982;7.834;2023-06-05T07:58:58;8.77;;;3.55;;
2546;SDS011;1283;47.982;7.834;2023-06-05T08:01:24;8.95;;;4.18;;
2546;SDS011;1283;47.982;7.834;2023-06-05T08:03:51;7.50;;;3.47;;
2546;SDS011;1283;47.982;7.834;2023-06-05T08:06:18;9.23;;;3.92;;
2546;SDS011;1283;47.982;7.834;2023-06-05T08:08:44;6.78;;;3.47;;
2546;SDS011;1283;47.982;7.834;2023-06-05T08:11:11;13.45;;;4.10;;
2546;SDS011;1283;47.982;7.834;2023-06-05T08:13:39;6.55;;;3.55;;
2546;SDS011;1283;47.982;7.834;2023-06-05T08:16:05;10.52;;;3.13;;
2546;SDS011;1283;47.982;7.834;2023-06-05T08:18:32;9.70;;;3.30;;
2546;SDS011;1283;47.982;7.834;2023-06-05T08:20:58;7.95;;;3.70;;
2546;SDS011;1283;47.982;7.834;2023-06-05T08:23:25;8.50;;;3.08;;
2546;SDS011;1283;47.982;7.834;2023-06-05T08:25:53;7.20;;;3.72;;
2546;SDS011;1283;47.982;7.834;2023-06-05T08:28:20;13.65;;;4.32;;
2546;SDS011;1283;47.982;7.834;2023-06-05T08:30:48;5.68;;;3.30;;
2546;SDS011;1283;47.982;7.834;2023-06-05T08:33:17;7.13;;;3.50;;
2546;SDS011;1283;47.982;7.834;2023-06-05T08:35:43;10.45;;;3.47;;
2546;SDS011;1283;47.982;7.834;2023-06-05T08:38:10;7.07;;;3.22;;
2546;SDS011;1283;47.982;7.834;2023-06-05T08:40:36;8.98;;;3.72;;
2546;SDS011;1283;47.982;7.834;2023-06-05T08:43:05;11.45;;;4.22;;
2546;SDS011;1283;47.982;7.834;2023-06-05T08:45:31;11.02;;;3.78;;
2546;SDS011;1283;47.982;7.834;2023-06-05T08:48:00;9.43;;;4.20;;
2546;SDS011;1283;47.982;7.834;2023-06-05T08:50:27;6.65;;;3.22;;
2546;SDS011;1283;47.982;7.834;2023-06-05T08:52:54;11.43;;;3.15;;
2546;SDS011;1283;47.982;7.834;2023-06-05T08:55:22;7.13;;;3.38;;
2546;SDS011;1283;47.982;7.834;2023-06-05T08:57:49;10.80;;;3.65;;
2546;SDS011;1283;47.982;7.834;2023-06-05T09:00:16;10.00;;;3.80;;
2546;SDS011;1283;47.982;7.834;2023-06-05T09:02:43;7.15;;;3.63;;
2546;SDS011;1283;47.982;7.834;2023-06-05T09:05:13;10.27;;;3.58;;
2546;SDS011;1283;47.982;7.834;2023-06-05T09:07:39;8.57;;;3.33;;
2546;SDS011;1283;47.982;7.834;2023-06-05T09:10:06;10.02;;;3.97;;
2546;SDS011;1283;47.982;7.834;2023-06-05T09:12:36;8.70;;;3.47;;
2546;SDS011;1283;47.982;7.834;2023-06-05T09:15:21;6.32;;;2.88;;
2546;SDS011;1283;47.982;7.834;2023-06-05T09:17:52;6.35;;;3.55;;
2546;SDS011;1283;47.982;7.834;2023-06-05T09:20:30;7.45;;;2.95;;
2546;SDS011;1283;47.982;7.834;2023-06-05T09:22:59;12.98;;;3.30;;
2546;SDS011;1283;47.982;7.834;2023-06-05T09:25:26;12.88;;;3.50;;
2546;SDS011;1283;47.982;7.834;2023-06-05T09:28:04;7.95;;;3.22;;
2546;SDS011;1283;47.982;7.834;2023-06-05T09:30:32;10.52;;;3.47;;
2546;SDS011;1283;47.982;7.834;2023-06-05T09:33:07;8.60;;;3.28;;
2546;SDS011;1283;47.982;7.834;2023-06-05T09:35:35;13.85;;;3.50;;
2546;SDS011;1283;47.982;7.834;2023-06-05T09:38:03;7.07;;;3.17;;
2546;SDS011;1283;47.982;7.834;2023-06-05T09:40:36;7.07;;;3.58;;
2546;SDS011;1283;47.982;7.834;2023-06-05T09:43:05;12.77;;;4.18;;
2546;SDS011;1283;47.982;7.834;2023-06-05T09:45:43;5.47;;;2.80;;
2546;SDS011;1283;47.982;7.834;2023-06-05T09:48:12;4.70;;;3.15;;
2546;SDS011;1283;47.982;7.834;2023-06-05T09:50:41;9.98;;;3.05;;
2546;SDS011;1283;47.982;7.834;2023-06-05T09:53:07;10.15;;;2.95;;
2546;SDS011;1283;47.982;7.834;2023-06-05T09:55:35;9.60;;;3.40;;
2546;SDS011;1283;47.982;7.834;2023-06-05T09:58:03;11.57;;;3.28;;
2546;SDS011;1283;47.982;7.834;2023-06-05T10:00:35;6.75;;;2.80;;
2546;SDS011;1283;47.982;7.834;2023-06-05T10:03:03;9.82;;;2.97;;
2546;SDS011;1283;47.982;7.834;2023-06-05T10:05:35;9.25;;;2.95;;
2546;SDS011;1283;47.982;7.834;2023-06-05T10:08:05;4.55;;;2.70;;
2546;SDS011;1283;47.982;7.834;2023-06-05T10:10:32;10.77;;;3.00;;
2546;SDS011;1283;47.982;7.834;2023-06-05T10:12:59;9.50;;;3.10;;
2546;SDS011;1283;47.982;7.834;2023-06-05T10:15:26;5.53;;;3.53;;
2546;SDS011;1283;47.982;7.834;2023-06-05T10:17:53;4.80;;;2.50;;
2546;SDS011;1283;47.982;7.834;2023-06-05T10:20:21;7.78;;;3.00;;
2546;SDS011;1283;47.982;7.834;2023-06-05T10:22:47;12.15;;;2.90;;
2546;SDS011;1283;47.982;7.834;2023-06-05T10:25:16;7.72;;;3.08;;
2546;SDS011;1283;47.982;7.834;2023-06-05T10:27:54;6.28;;;3.03;;
2546;SDS011;1283;47.982;7.834;2023-06-05T10:33:24;7.38;;;2.88;;
2546;SDS011;1283;47.982;7.834;2023-06-05T10:35:59;8.75;;;2.60;;
2546;SDS011;1283;47.982;7.834;2023-06-05T10:38:34;7.28;;;2.95;;
2546;SDS011;1283;47.982;7.834;2023-06-05T10:41:02;11.60;;;2.92;;
2546;SDS011;1283;47.982;7.834;2023-06-05T10:43:30;10.32;;;2.90;;
2546;SDS011;1283;47.982;7.834;2023-06-05T10:45:58;12.20;;;3.05;;
2546;SDS011;1283;47.982;7.834;2023-06-05T10:51:33;6.55;;;2.90;;
2546;SDS011;1283;47.982;7.834;2023-06-05T10:54:02;12.20;;;3.13;;
2546;SDS011;1283;47.982;7.834;2023-06-05T10:59:24;7.75;;;3.15;;
2546;SDS011;1283;47.982;7.834;2023-06-05T11:05:04;7.78;;;3.17;;
2546;SDS011;1283;47.982;7.834;2023-06-05T11:07:33;10.80;;;3.67;;
2546;SDS011;1283;47.982;7.834;2023-06-05T11:10:06;6.50;;;2.75;;
2546;SDS011;1283;47.982;7.834;2023-06-05T11:12:58;7.20;;;3.30;;
2546;SDS011;1283;47.982;7.834;2023-06-05T11:15:36;7.80;;;3.20;;
2546;SDS011;1283;47.982;7.834;2023-06-05T11:20:52;8.38;;;3.17;;
2546;SDS011;1283;47.982;7.834;2023-06-05T11:23:19;5.88;;;3.42;;
2546;SDS011;1283;47.982;7.834;2023-06-05T11:25:47;6.75;;;2.95;;
2546;SDS011;1283;47.982;7.834;2023-06-05T11:28:36;10.55;;;3.65;;
2546;SDS011;1283;47.982;7.834;2023-06-05T11:31:03;11.85;;;2.88;;
2546;SDS011;1283;47.982;7.834;2023-06-05T11:33:30;11.27;;;3.30;;
2546;SDS011;1283;47.982;7.834;2023-06-05T11:35:59;13.55;;;3.40;;
2546;SDS011;1283;47.982;7.834;2023-06-05T11:38:26;7.20;;;3.33;;
2546;SDS011;1283;47.982;7.834;2023-06-05T11:40:53;9.32;;;3.22;;
2546;SDS011;1283;47.982;7.834;2023-06-05T11:43:21;4.70;;;3.38;;
2546;SDS011;1283;47.982;7.834;2023-06-05T11:45:48;4.72;;;3.22;;
2546;SDS011;1283;47.982;7.834;2023-06-05T11:48:16;9.52;;;3.13;;
2546;SDS011;1283;47.982;7.834;2023-06-05T11:50:51;11.32;;;3.25;;
2546;SDS011;1283;47.982;7.834;2023-06-05T11:53:18;8.35;;;4.13;;
2546;SDS011;1283;47.982;7.834;2023-06-05T11:55:45;8.95;;;2.90;;
2546;SDS011;1283;47.982;7.834;2023-06-05T11:58:32;12.93;;;3.05;;
2546;SDS011;1283;47.982;7.834;2023-06-05T12:01:06;7.82;;;3.30;;
2546;SDS011;1283;47.982;7.834;2023-06-05T12:03:37;8.20;;;3.03;;
2546;SDS011;1283;47.982;7.834;2023-06-05T12:06:05;7.15;;;3.50;;
2546;SDS011;1283;47.982;7.834;2023-06-05T12:08:32;5.65;;;2.80;;
2546;SDS011;1283;47.982;7.834;2023-06-05T12:11:00;5.47;;;3.25;;
2546;SDS011;1283;47.982;7.834;2023-06-05T12:13:48;6.10;;;3.08;;
2546;SDS011;1283;47.982;7.834;2023-06-05T12:16:16;12.05;;;3.60;;
2546;SDS011;1283;47.982;7.834;2023-06-05T12:18:43;4.75;;;3.25;;
2546;SDS011;1283;47.982;7.834;2023-06-05T12:21:20;6.85;;;2.95;;
2546;SDS011;1283;47.982;7.834;2023-06-05T12:23:47;11.00;;;2.90;;
2546;SDS011;1283;47.982;7.834;2023-06-05T12:26:14;5.78;;;3.25;;
2546;SDS011;1283;47.982;7.834;2023-06-05T12:28:41;7.07;;;3.05;;
2546;SDS011;1283;47.982;7.834;2023-06-05T12:31:09;23.10;;;3.60;;
2546;SDS011;1283;47.982;7.834;2023-06-05T12:33:45;8.23;;;3.35;;
2546;SDS011;1283;47.982;7.834;2023-06-05T12:36:12;6.33;;;3.00;;
2546;SDS011;1283;47.982;7.834;2023-06-05T12:38:39;3.05;;;2.50;;
2546;SDS011;1283;47.982;7.834;2023-06-05T12:41:06;10.50;;;3.50;;
2546;SDS011;1283;47.982;7.834;2023-06-05T12:43:33;11.50;;;3.53;;
2546;SDS011;1283;47.982;7.834;2023-06-05T12:45:59;12.07;;;3.00;;
2546;SDS011;1283;47.982;7.834;2023-06-05T12:48:28;14.60;;;2.92;;
2546;SDS011;1283;47.982;7.834;2023-06-05T12:50:54;9.90;;;3.47;;
2546;SDS011;1283;47.982;7.834;2023-06-05T12:53:21;6.28;;;3.28;;
2546;SDS011;1283;47.982;7.834;2023-06-05T12:55:48;10.70;;;3.42;;
2546;SDS011;1283;47.982;7.834;2023-06-05T12:58:14;7.20;;;2.88;;
2546;SDS011;1283;47.982;7.834;2023-06-05T13:00:41;6.15;;;3.25;;
2546;SDS011;1283;47.982;7.834;2023-06-05T13:03:09;7.20;;;3.40;;
2546;SDS011;1283;47.982;7.834;2023-06-05T13:05:36;6.65;;;3.72;;
2546;SDS011;1283;47.982;7.834;2023-06-05T13:08:03;7.28;;;3.40;;
2546;SDS011;1283;47.982;7.834;2023-06-05T13:10:31;9.35;;;3.42;;
2546;SDS011;1283;47.982;7.834;2023-06-05T13:12:57;8.20;;;3.42;;
2546;SDS011;1283;47.982;7.834;2023-06-05T13:15:24;5.10;;;3.13;;
2546;SDS011;1283;47.982;7.834;2023-06-05T13:17:50;8.10;;;4.13;;
2546;SDS011;1283;47.982;7.834;2023-06-05T13:20:17;6.43;;;3.40;;
2546;SDS011;1283;47.982;7.834;2023-06-05T13:22:45;7.25;;;2.95;;
2546;SDS011;1283;47.982;7.834;2023-06-05T13:25:11;9.20;;;3.47;;
2546;SDS011;1283;47.982;7.834;2023-06-05T13:27:38;6.07;;;2.75;;
2546;SDS011;1283;47.982;7.834;2023-06-05T13:30:05;11.40;;;2.97;;
2546;SDS011;1283;47.982;7.834;2023-06-05T13:32:34;6.88;;;3.22;;
2546;SDS011;1283;47.982;7.834;2023-06-05T13:35:00;8.10;;;3.47;;
2546;SDS011;1283;47.982;7.834;2023-06-05T13:37:27;4.97;;;3.15;;
2546;SDS011;1283;47.982;7.834;2023-06-05T13:39:55;7.65;;;3.42;;
2546;SDS011;1283;47.982;7.834;2023-06-05T13:42:21;7.60;;;3.85;;
2546;SDS011;1283;47.982;7.834;2023-06-05T13:44:48;12.23;;;3.17;;
2546;SDS011;1283;47.982;7.834;2023-06-05T13:47:15;6.82;;;2.95;;
2546;SDS011;1283;47.982;7.834;2023-06-05T13:49:41;4.57;;;2.80;;
2546;SDS011;1283;47.982;7.834;2023-06-05T13:52:07;7.90;;;3.10;;
2546;SDS011;1283;47.982;7.834;2023-06-05T13:54:34;7.50;;;3.10;;
2546;SDS011;1283;47.982;7.834;2023-06-05T13:57:02;3.53;;;2.83;;
2546;SDS011;1283;47.982;7.834;2023-06-05T13:59:29;5.75;;;3.92;;
2546;SDS011;1283;47.982;7.834;2023-06-05T14:01:55;8.07;;;3.20;;
2546;SDS011;1283;47.982;7.834;2023-06-05T14:04:21;8.52;;;3.00;;
2546;SDS011;1283;47.982;7.834;2023-06-05T14:06:48;6.60;;;2.88;;
2546;SDS011;1283;47.982;7.834;2023-06-05T14:09:15;9.60;;;3.38;;
2546;SDS011;1283;47.982;7.834;2023-06-05T14:11:41;11.07;;;3.45;;
2546;SDS011;1283;47.982;7.834;2023-06-05T14:14:10;4.90;;;3.00;;
2546;SDS011;1283;47.982;7.834;2023-06-05T14:16:37;8.65;;;3.42;;
2546;SDS011;1283;47.982;7.834;2023-06-05T14:19:03;6.38;;;3.05;;
2546;SDS011;1283;47.982;7.834;2023-06-05T14:21:30;14.77;;;3.20;;
2546;SDS011;1283;47.982;7.834;2023-06-05T14:23:56;7.65;;;3.35;;
2546;SDS011;1283;47.982;7.834;2023-06-05T14:26:22;8.25;;;3.80;;
2546;SDS011;1283;47.982;7.834;2023-06-05T14:28:50;9.60;;;4.50;;
2546;SDS011;1283;47.982;7.834;2023-06-05T14:31:18;12.40;;;3.58;;
2546;SDS011;1283;47.982;7.834;2023-06-05T14:33:45;9.20;;;3.70;;
2546;SDS011;1283;47.982;7.834;2023-06-05T14:36:12;6.32;;;3.15;;
2546;SDS011;1283;47.982;7.834;2023-06-05T14:38:40;11.20;;;3.53;;
2546;SDS011;1283;47.982;7.834;2023-06-05T14:41:06;6.53;;;3.45;;
2546;SDS011;1283;47.982;7.834;2023-06-05T14:43:33;7.43;;;3.28;;
2546;SDS011;1283;47.982;7.834;2023-06-05T14:45:59;10.38;;;3.50;;
2546;SDS011;1283;47.982;7.834;2023-06-05T14:48:27;4.00;;;3.10;;
2546;SDS011;1283;47.982;7.834;2023-06-05T14:50:53;6.47;;;3.33;;
2546;SDS011;1283;47.982;7.834;2023-06-05T14:53:21;12.57;;;4.18;;
2546;SDS011;1283;47.982;7.834;2023-06-05T14:55:47;13.23;;;3.40;;
2546;SDS011;1283;47.982;7.834;2023-06-05T14:58:15;9.05;;;3.85;;
2546;SDS011;1283;47.982;7.834;2023-06-05T15:00:41;8.88;;;3.70;;
2546;SDS011;1283;47.982;7.834;2023-06-05T15:03:08;6.63;;;3.47;;
2546;SDS011;1283;47.982;7.834;2023-06-05T15:05:35;10.60;;;3.78;;
2546;SDS011;1283;47.982;7.834;2023-06-05T15:08:02;7.38;;;3.65;;
2546;SDS011;1283;47.982;7.834;2023-06-05T15:10:30;10.65;;;3.80;;
2546;SDS011;1283;47.982;7.834;2023-06-05T15:12:57;8.40;;;3.65;;
2546;SDS011;1283;47.982;7.834;2023-06-05T15:15:23;10.98;;;3.75;;
2546;SDS011;1283;47.982;7.834;2023-06-05T15:17:50;9.90;;;3.95;;
2546;SDS011;1283;47.982;7.834;2023-06-05T15:20:18;6.13;;;3.97;;
2546;SDS011;1283;47.982;7.834;2023-06-05T15:22:46;7.22;;;3.85;;
2546;SDS011;1283;47.982;7.834;2023-06-05T15:25:13;7.75;;;3.88;;
2546;SDS011;1283;47.982;7.834;2023-06-05T15:27:39;5.85;;;4.20;;
2546;SDS011;1283;47.982;7.834;2023-06-05T15:30:07;10.68;;;3.67;;